createdAt,value
2018-12-06T00:00:05.218Z,15.40
2018-12-06T00:02:34.984Z,9.03
2018-12-06T00:05:05.714Z,10.90
2018-12-06T00:07:50.027Z,17.40
2018-12-06T00:10:20.810Z,6.05
2018-12-06T00:12:54.098Z,4.05
2018-12-06T00:15:26.314Z,8.60
2018-12-06T00:18:01.098Z,6.20
2018-12-06T00:20:31.010Z,7.58
2018-12-06T00:23:10.866Z,8.65
2018-12-06T00:25:39.698Z,6.03
2018-12-06T00:28:18.990Z,8.58
2018-12-06T00:30:47.884Z,6.72
2018-12-06T00:33:26.458Z,9.75
2018-12-06T00:35:58.154Z,6.65
2018-12-06T00:38:30.134Z,4.78
2018-12-06T00:40:59.938Z,8.68
2018-12-06T00:43:40.029Z,8.15
2018-12-06T00:46:15.766Z,7.92
2018-12-06T00:48:48.714Z,5.53
2018-12-06T00:51:27.082Z,8.50
2018-12-06T00:53:56.821Z,8.60
2018-12-06T00:56:25.931Z,6.33
2018-12-06T00:59:01.357Z,10.55
2018-12-06T01:01:32.230Z,12.00
2018-12-06T01:04:01.097Z,4.50
2018-12-06T01:06:29.941Z,6.95
2018-12-06T01:09:26.122Z,8.73
2018-12-06T01:12:19.542Z,4.30
2018-12-06T01:15:01.197Z,10.03
2018-12-06T01:17:40.165Z,11.33
2018-12-06T01:20:09.101Z,8.60
2018-12-06T01:22:38.117Z,9.00
2018-12-06T01:25:11.578Z,8.18
2018-12-06T01:27:40.413Z,7.83
2018-12-06T01:30:22.379Z,8.70
2018-12-06T01:32:58.334Z,8.80
2018-12-06T01:35:27.218Z,7.08
2018-12-06T01:38:02.835Z,6.45
2018-12-06T01:40:32.713Z,7.97
2018-12-06T01:43:16.866Z,11.38
2018-12-06T01:45:46.642Z,12.37
2018-12-06T01:48:23.617Z,8.38
2018-12-06T01:50:55.562Z,9.23
2018-12-06T01:53:30.307Z,7.10
2018-12-06T01:55:59.201Z,4.10
2018-12-06T01:58:29.002Z,5.80
2018-12-06T02:01:01.258Z,5.33
2018-12-06T02:03:31.060Z,6.60
2018-12-06T02:06:13.005Z,6.83
2018-12-06T02:09:02.385Z,5.12
2018-12-06T02:11:34.861Z,8.25
2018-12-06T02:14:04.717Z,5.72
2018-12-06T02:16:52.477Z,8.08
2018-12-06T02:19:36.221Z,7.47
2018-12-06T02:22:07.961Z,9.13
2018-12-06T02:24:41.713Z,5.12
2018-12-06T02:27:10.549Z,5.42
2018-12-06T02:29:44.873Z,5.25
2018-12-06T02:32:14.605Z,7.42
2018-12-06T02:34:43.449Z,7.17
2018-12-06T02:37:12.233Z,8.40
2018-12-06T02:39:41.021Z,7.05
2018-12-06T02:42:14.154Z,6.22
2018-12-06T02:45:00.244Z,10.15
2018-12-06T02:47:32.585Z,4.45
2018-12-06T02:50:02.347Z,10.08
2018-12-06T02:52:32.135Z,7.70
2018-12-06T02:55:18.370Z,7.08
2018-12-06T02:57:54.137Z,10.40
2018-12-06T03:00:33.853Z,6.30
2018-12-06T03:03:10.445Z,6.22
2018-12-06T03:05:46.841Z,6.45
2018-12-06T03:08:24.333Z,10.93
2018-12-06T03:11:04.165Z,9.20
2018-12-06T03:13:32.986Z,8.48
2018-12-06T03:16:01.785Z,8.05
2018-12-06T03:18:30.557Z,9.53
2018-12-06T03:21:05.053Z,7.30
2018-12-06T03:23:47.213Z,10.10
2018-12-06T03:26:32.989Z,8.45
2018-12-06T03:29:08.862Z,8.60
2018-12-06T03:31:39.647Z,8.98
2018-12-06T03:34:09.472Z,9.25
2018-12-06T03:36:39.042Z,12.10
2018-12-06T03:39:12.958Z,7.08
2018-12-06T03:41:46.703Z,16.12
2018-12-06T03:44:31.794Z,11.28
2018-12-06T03:47:06.386Z,12.60
2018-12-06T03:49:39.204Z,9.08
2018-12-06T03:53:09.163Z,10.60
2018-12-06T03:55:43.366Z,13.22
2018-12-06T03:58:13.214Z,9.93
2018-12-06T04:00:45.975Z,16.82
2018-12-06T04:03:14.775Z,10.70
2018-12-06T04:05:44.565Z,11.90
2018-12-06T04:08:18.070Z,16.87
2018-12-06T04:10:48.926Z,11.38
2018-12-06T04:13:29.178Z,16.57
2018-12-06T04:16:08.886Z,13.48
2018-12-06T04:18:39.632Z,11.00
2018-12-06T04:21:08.410Z,10.15
2018-12-06T04:23:39.158Z,12.05
2018-12-06T04:26:17.688Z,14.35
2018-12-06T04:28:52.268Z,15.60
2018-12-06T04:31:22.112Z,12.45
2018-12-06T04:33:50.931Z,12.35
2018-12-06T04:36:25.264Z,14.68
2018-12-06T04:39:10.063Z,13.32
2018-12-06T04:41:40.687Z,9.93
2018-12-06T04:44:10.443Z,15.23
2018-12-06T04:46:40.223Z,12.18
2018-12-06T04:49:14.048Z,10.03
2018-12-06T04:51:45.343Z,16.90
2018-12-06T04:54:36.483Z,14.15
2018-12-06T04:57:05.343Z,14.93
2018-12-06T04:59:35.119Z,14.35
2018-12-06T05:02:11.095Z,12.60
2018-12-06T05:04:44.084Z,18.17
2018-12-06T05:07:17.167Z,14.28
2018-12-06T05:09:46.943Z,17.10
2018-12-06T05:12:16.771Z,16.40
2018-12-06T05:14:48.809Z,12.55
2018-12-06T05:17:32.348Z,16.67
2018-12-06T05:20:23.031Z,21.17
2018-12-06T05:23:04.071Z,14.95
2018-12-06T05:25:39.375Z,15.88
2018-12-06T05:28:10.092Z,12.98
2018-12-06T05:30:38.935Z,14.15
2018-12-06T05:33:37.879Z,16.82
2018-12-06T05:36:20.307Z,11.73
2018-12-06T05:39:07.034Z,15.75
2018-12-06T05:41:41.751Z,14.23
2018-12-06T05:44:10.599Z,10.85
2018-12-06T05:46:44.207Z,14.07
2018-12-06T05:49:38.883Z,12.53
2018-12-06T05:52:09.611Z,16.52
2018-12-06T05:54:40.355Z,13.03
2018-12-06T05:57:17.495Z,13.38
2018-12-06T05:59:48.315Z,16.60
2018-12-06T06:02:37.951Z,13.10
2018-12-06T06:05:08.905Z,16.27
2018-12-06T06:07:38.698Z,15.43
2018-12-06T06:10:10.770Z,17.98
2018-12-06T06:12:42.474Z,13.65
2018-12-06T06:15:17.870Z,20.27
2018-12-06T06:17:56.614Z,18.65
2018-12-06T06:20:26.422Z,18.67
2018-12-06T06:22:56.234Z,18.42
2018-12-06T06:25:38.675Z,18.07
2018-12-06T06:28:08.526Z,20.45
2018-12-06T06:30:54.706Z,17.35
2018-12-06T06:33:37.326Z,15.75
2018-12-06T06:36:12.467Z,15.93
2018-12-06T06:38:43.147Z,20.12
2018-12-06T06:41:12.948Z,22.05
2018-12-06T06:43:42.746Z,19.15
2018-12-06T06:46:18.570Z,18.15
2018-12-06T06:48:52.542Z,15.98
2018-12-06T06:51:22.305Z,18.48
2018-12-06T06:53:56.002Z,25.45
2018-12-06T06:56:39.062Z,20.02
2018-12-06T06:59:07.958Z,23.07
2018-12-06T07:02:01.114Z,19.80
2018-12-06T07:04:31.835Z,22.95
2018-12-06T07:10:08.354Z,18.95
2018-12-06T07:12:39.101Z,26.30
2018-12-06T07:15:13.859Z,24.92
2018-12-06T07:17:42.702Z,32.25
2018-12-06T07:20:16.264Z,26.30
2018-12-06T07:22:45.999Z,23.95
2018-12-06T07:25:14.891Z,26.50
2018-12-06T07:27:44.483Z,26.87
2018-12-06T07:30:15.323Z,25.52
2018-12-06T07:32:45.003Z,31.25
2018-12-06T07:35:19.215Z,30.10
2018-12-06T07:37:49.023Z,24.95
2018-12-06T07:40:26.931Z,30.70
2018-12-06T07:42:56.635Z,30.40
2018-12-06T07:45:26.500Z,25.72
2018-12-06T07:47:56.246Z,31.82
2018-12-06T07:50:25.074Z,24.72
2018-12-06T07:52:54.960Z,25.75
2018-12-06T07:55:30.211Z,23.18
2018-12-06T07:57:59.075Z,30.00
2018-12-06T08:00:38.405Z,19.75
2018-12-06T08:03:08.226Z,24.65
2018-12-06T08:05:37.050Z,22.98
2018-12-06T08:08:05.911Z,21.45
2018-12-06T08:10:34.811Z,21.15
2018-12-06T08:13:04.235Z,24.47
2018-12-06T08:15:34.011Z,22.07
2018-12-06T08:18:15.370Z,28.65
2018-12-06T08:20:44.243Z,27.75
2018-12-06T08:23:17.547Z,27.52
2018-12-06T08:25:52.152Z,24.18
2018-12-06T08:28:37.191Z,23.40
2018-12-06T08:31:13.171Z,30.30
2018-12-06T08:33:45.092Z,24.20
2018-12-06T08:36:17.759Z,23.38
2018-12-06T08:38:46.583Z,31.45
2018-12-06T08:41:20.088Z,25.08
2018-12-06T08:43:51.096Z,26.27
2018-12-06T08:46:19.926Z,24.37
2018-12-06T08:48:48.702Z,21.93
2018-12-06T08:51:25.775Z,24.10
2018-12-06T08:54:01.270Z,25.00
2018-12-06T08:56:30.967Z,25.80
2018-12-06T08:58:59.743Z,26.00
2018-12-06T09:01:33.499Z,24.77
2018-12-06T09:04:03.295Z,23.40
2018-12-06T09:06:39.091Z,21.62
2018-12-06T09:09:13.608Z,27.77
2018-12-06T09:12:07.892Z,25.62
2018-12-06T09:14:36.714Z,20.40
2018-12-06T09:17:05.832Z,25.88
2018-12-06T09:19:36.570Z,19.27
2018-12-06T09:22:05.391Z,28.87
2018-12-06T09:24:38.863Z,24.65
2018-12-06T09:27:09.543Z,25.20
2018-12-06T09:29:38.455Z,23.67
2018-12-06T09:32:21.348Z,21.62
2018-12-06T09:34:55.583Z,29.55
2018-12-06T09:37:25.326Z,26.57
2018-12-06T09:39:59.860Z,22.02
2018-12-06T09:42:29.647Z,22.40
2018-12-06T09:45:03.751Z,24.23
2018-12-06T09:47:50.492Z,28.17
2018-12-06T09:50:19.303Z,27.67
2018-12-06T09:52:49.083Z,22.20
2018-12-06T09:55:18.007Z,30.55
2018-12-06T09:57:51.495Z,28.05
2018-12-06T10:00:25.056Z,25.20
2018-12-06T10:05:59.003Z,26.42
2018-12-06T10:08:28.719Z,34.18
2018-12-06T10:11:04.939Z,23.73
2018-12-06T10:13:37.947Z,27.67
2018-12-06T10:16:07.715Z,26.35
2018-12-06T10:18:36.547Z,28.80
2018-12-06T10:21:29.171Z,25.95
2018-12-06T10:24:02.540Z,29.67
2018-12-06T10:26:31.414Z,29.98
2018-12-06T10:29:01.158Z,34.27
2018-12-06T10:31:58.163Z,28.32
2018-12-06T10:34:29.995Z,30.40
2018-12-06T10:37:06.246Z,33.78
2018-12-06T10:39:38.079Z,33.80
2018-12-06T10:42:13.491Z,36.73
2018-12-06T10:44:42.287Z,36.70
2018-12-06T10:47:23.639Z,34.88
2018-12-06T10:49:55.823Z,35.68
2018-12-06T10:52:25.540Z,32.48
2018-12-06T10:54:54.359Z,34.38
2018-12-06T10:57:23.195Z,39.88
2018-12-06T10:59:51.976Z,34.20
2018-12-06T11:02:29.516Z,35.80
2018-12-06T11:05:06.824Z,30.27
2018-12-06T11:07:40.792Z,26.42
2018-12-06T11:10:35.737Z,32.90
2018-12-06T11:13:04.872Z,33.10
2018-12-06T11:15:33.748Z,30.62
2018-12-06T11:18:03.601Z,30.25
2018-12-06T11:20:32.444Z,32.75
2018-12-06T11:23:01.228Z,36.65
2018-12-06T11:25:30.008Z,34.98
2018-12-06T11:27:58.843Z,31.60
2018-12-06T11:30:28.674Z,30.37
2018-12-06T11:32:59.361Z,32.38
2018-12-06T11:35:37.123Z,38.73
2018-12-06T11:38:12.576Z,32.58
2018-12-06T11:40:53.045Z,34.08
2018-12-06T11:43:35.759Z,28.45
2018-12-06T11:46:08.512Z,37.90
2018-12-06T11:48:38.284Z,37.98
2018-12-06T11:51:21.037Z,28.95
2018-12-06T11:53:55.879Z,31.95
2018-12-06T11:56:25.628Z,30.90
2018-12-06T11:58:54.544Z,31.80
2018-12-06T12:01:24.321Z,31.75
2018-12-06T12:03:55.086Z,31.37
2018-12-06T12:06:23.920Z,30.68
2018-12-06T12:08:54.588Z,29.50
2018-12-06T12:11:36.344Z,33.15
2018-12-06T12:14:21.708Z,33.42
2018-12-06T12:16:51.464Z,30.35
2018-12-06T12:19:36.924Z,30.08
2018-12-06T12:22:09.312Z,36.00
2018-12-06T12:25:02.129Z,33.18
2018-12-06T12:27:35.476Z,29.92
2018-12-06T12:30:07.899Z,28.67
2018-12-06T12:32:36.748Z,26.00
2018-12-06T12:35:14.712Z,26.73
2018-12-06T12:37:46.516Z,26.82
2018-12-06T12:40:15.353Z,25.90
2018-12-06T12:42:46.031Z,26.37
2018-12-06T12:45:16.916Z,22.48
2018-12-06T12:47:47.604Z,24.35
2018-12-06T12:50:18.349Z,23.40
2018-12-06T12:52:51.902Z,21.60
2018-12-06T12:55:20.817Z,22.02
2018-12-06T12:58:00.912Z,21.48
2018-12-06T13:00:29.808Z,24.77
2018-12-06T13:03:03.436Z,22.95
2018-12-06T13:05:37.192Z,23.77
2018-12-06T13:08:06.916Z,20.20
2018-12-06T13:10:36.664Z,20.77
2018-12-06T13:13:14.008Z,19.17
2018-12-06T13:15:42.856Z,21.02
2018-12-06T13:18:22.485Z,19.85
2018-12-06T13:20:51.332Z,18.12
2018-12-06T13:23:21.107Z,19.82
2018-12-06T13:25:59.992Z,27.35
2018-12-06T13:28:32.784Z,21.42
2018-12-06T13:34:06.808Z,18.25
2018-12-06T13:39:48.204Z,21.77
2018-12-06T13:42:25.528Z,21.33
2018-12-06T13:45:00.918Z,16.60
2018-12-06T13:47:34.813Z,21.75
2018-12-06T13:50:14.372Z,24.30
2018-12-06T13:52:57.692Z,18.07
2018-12-06T13:55:29.904Z,19.15
2018-12-06T13:57:58.820Z,19.05
2018-12-06T14:00:27.772Z,24.25
2018-12-06T14:03:03.689Z,23.52
2018-12-06T14:05:36.557Z,19.00
2018-12-06T14:08:12.940Z,20.85
2018-12-06T14:10:54.344Z,23.42
2018-12-06T14:13:23.806Z,21.73
2018-12-06T14:15:52.864Z,20.10
2018-12-06T14:18:24.925Z,18.37
2018-12-06T14:21:04.316Z,20.80
2018-12-06T14:23:34.080Z,19.52
2018-12-06T14:26:07.076Z,19.20
2018-12-06T14:28:36.888Z,20.02
2018-12-06T14:31:17.649Z,18.42
2018-12-06T14:33:46.504Z,17.82
2018-12-06T14:36:17.269Z,21.68
2018-12-06T14:38:46.981Z,23.60
2018-12-06T14:41:36.132Z,19.62
2018-12-06T14:44:05.075Z,19.30
2018-12-06T14:46:34.729Z,18.05
2018-12-06T14:49:11.681Z,20.92
2018-12-06T14:51:48.336Z,18.05
2018-12-06T14:54:17.206Z,24.37
2018-12-06T14:56:47.009Z,18.50
2018-12-06T14:59:20.585Z,19.57
2018-12-06T15:01:49.469Z,16.50
2018-12-06T15:04:19.205Z,16.32
2018-12-06T15:06:48.084Z,15.98
2018-12-06T15:09:17.078Z,16.80
2018-12-06T15:11:46.833Z,20.37
2018-12-06T15:14:19.713Z,17.90
2018-12-06T15:16:53.132Z,19.35
2018-12-06T15:19:26.303Z,20.45
2018-12-06T15:21:55.140Z,23.07
2018-12-06T15:24:27.405Z,21.80
2018-12-06T15:27:01.121Z,19.32
2018-12-06T15:29:37.433Z,17.00
2018-12-06T15:32:12.167Z,16.97
2018-12-06T15:34:46.818Z,15.88
2018-12-06T15:37:16.623Z,14.15
2018-12-06T15:39:45.584Z,17.70
2018-12-06T15:42:14.473Z,16.62
2018-12-06T15:44:45.285Z,20.20
2018-12-06T15:47:20.225Z,16.00
2018-12-06T15:49:50.036Z,21.12
2018-12-06T15:52:19.765Z,24.87
2018-12-06T15:54:56.115Z,22.48
2018-12-06T15:57:29.117Z,33.40
2018-12-06T16:00:01.892Z,55.48
2018-12-06T16:02:34.481Z,69.35
2018-12-06T16:05:07.340Z,47.98
2018-12-06T16:11:30.169Z,42.65
2018-12-06T16:13:59.853Z,53.50
2018-12-06T16:16:29.580Z,25.60
2018-12-06T16:18:59.394Z,40.33
2018-12-06T16:21:34.012Z,37.35
2018-12-06T16:24:10.657Z,47.40
2018-12-06T16:26:44.342Z,49.55
2018-12-06T16:29:13.177Z,40.78
2018-12-06T16:31:49.320Z,40.15
2018-12-06T16:34:19.080Z,73.05
2018-12-06T16:36:54.900Z,33.13
2018-12-06T16:39:26.880Z,47.30
2018-12-06T16:41:56.684Z,19.10
2018-12-06T16:44:25.567Z,18.12
2018-12-06T16:46:54.412Z,22.85
2018-12-06T16:49:23.252Z,17.00
2018-12-06T16:51:53.160Z,22.60
2018-12-06T16:54:22.934Z,16.40
2018-12-06T16:56:52.864Z,17.35
2018-12-06T16:59:22.595Z,20.05
2018-12-06T17:01:52.403Z,20.20
2018-12-06T17:04:32.357Z,19.23
2018-12-06T17:07:01.217Z,22.87
2018-12-06T17:09:30.055Z,18.20
2018-12-06T17:12:05.409Z,18.65
2018-12-06T17:14:35.140Z,21.30
2018-12-06T17:17:10.800Z,17.67
2018-12-06T17:19:39.609Z,23.10
2018-12-06T17:22:08.423Z,18.73
2018-12-06T17:24:39.197Z,19.23
2018-12-06T17:27:14.748Z,17.85
2018-12-06T17:29:44.500Z,18.30
2018-12-06T17:32:18.401Z,19.17
2018-12-06T17:34:51.281Z,19.35
2018-12-06T17:37:20.089Z,28.65
2018-12-06T17:39:59.269Z,26.20
2018-12-06T17:42:30.061Z,24.98
2018-12-06T17:45:06.085Z,23.32
2018-12-06T17:47:41.249Z,19.07
2018-12-06T17:50:29.073Z,20.85
2018-12-06T17:52:58.829Z,29.95
2018-12-06T17:55:27.689Z,23.73
2018-12-06T17:57:57.517Z,28.85
2018-12-06T18:00:27.152Z,26.17
2018-12-06T18:02:55.949Z,24.45
2018-12-06T18:05:32.885Z,22.42
2018-12-06T18:08:01.673Z,19.48
2018-12-06T18:10:30.945Z,23.67
2018-12-06T18:12:59.837Z,23.75
2018-12-06T18:15:32.137Z,18.85
2018-12-06T18:18:04.573Z,20.97
2018-12-06T18:20:34.431Z,20.97
2018-12-06T18:23:05.261Z,19.20
2018-12-06T18:25:36.080Z,34.88
2018-12-06T18:28:09.345Z,31.48
2018-12-06T18:30:39.161Z,34.40
2018-12-06T18:33:12.764Z,23.02
2018-12-06T18:35:42.553Z,18.90
2018-12-06T18:38:11.364Z,18.65
2018-12-06T18:40:55.132Z,20.17
2018-12-06T18:43:25.305Z,19.70
2018-12-06T18:45:56.172Z,18.77
2018-12-06T18:48:25.972Z,20.35
2018-12-06T18:50:54.865Z,19.85
2018-12-06T18:53:23.764Z,22.17
2018-12-06T18:55:54.529Z,20.65
2018-12-06T18:58:25.365Z,21.73
2018-12-06T19:00:54.304Z,25.12
2018-12-06T19:03:26.162Z,24.65
2018-12-06T19:05:59.800Z,25.45
2018-12-06T19:08:30.504Z,25.15
2018-12-06T19:11:05.904Z,24.23
2018-12-06T19:13:34.805Z,29.65
2018-12-06T19:16:03.729Z,27.10
2018-12-06T19:18:36.361Z,28.80
2018-12-06T19:21:05.149Z,26.97
2018-12-06T19:23:34.017Z,27.55
2018-12-06T19:26:02.937Z,26.37
2018-12-06T19:28:31.773Z,29.82
2018-12-06T19:31:01.569Z,27.25
2018-12-06T19:33:30.357Z,30.92
2018-12-06T19:35:59.201Z,33.73
2018-12-06T19:38:28.057Z,28.73
2018-12-06T19:40:57.861Z,32.78
2018-12-06T19:43:28.407Z,30.12
2018-12-06T19:45:58.153Z,33.63
2018-12-06T19:48:27.385Z,25.20
2018-12-06T19:50:56.329Z,28.12
2018-12-06T19:53:25.133Z,28.05
2018-12-06T19:55:54.009Z,29.10
2018-12-06T19:58:23.785Z,35.95
2018-12-06T20:00:52.597Z,30.37
2018-12-06T20:03:21.482Z,31.05
2018-12-06T20:05:52.301Z,26.70
2018-12-06T20:08:22.142Z,29.55
2018-12-06T20:10:51.938Z,24.70
2018-12-06T20:13:20.765Z,23.42
2018-12-06T20:15:49.592Z,26.70
2018-12-06T20:18:20.409Z,28.10
2018-12-06T20:20:49.277Z,25.45
2018-12-06T20:23:33.649Z,30.10
2018-12-06T20:26:05.297Z,23.57
2018-12-06T20:28:34.145Z,26.20
2018-12-06T20:31:02.937Z,30.10
2018-12-06T20:33:32.857Z,24.40
2018-12-06T20:36:05.818Z,26.27
2018-12-06T20:38:34.760Z,25.82
2018-12-06T20:41:03.613Z,22.17
2018-12-06T20:43:33.373Z,23.20
2018-12-06T20:46:02.282Z,24.15
2018-12-06T20:48:35.332Z,22.45
2018-12-06T20:51:05.153Z,22.58
2018-12-06T20:57:37.093Z,18.60
2018-12-06T21:00:05.901Z,19.32
2018-12-06T21:02:35.737Z,20.23
2018-12-06T21:05:05.677Z,25.27
2018-12-06T21:07:38.885Z,23.42
2018-12-06T21:10:07.867Z,21.15
2018-12-06T21:12:38.622Z,22.25
2018-12-06T21:15:08.454Z,28.38
2018-12-06T21:17:38.513Z,23.20
2018-12-06T21:20:08.405Z,17.15
2018-12-06T21:22:38.287Z,21.68
2018-12-06T21:25:09.073Z,18.87
2018-12-06T21:27:38.814Z,17.60
2018-12-06T21:30:10.949Z,17.85
2018-12-06T21:32:39.821Z,18.77
2018-12-06T21:35:09.630Z,16.27
2018-12-06T21:37:38.464Z,19.95
2018-12-06T21:40:07.538Z,16.02
2018-12-06T21:42:37.242Z,16.17
2018-12-06T21:45:11.012Z,18.80
2018-12-06T21:47:39.875Z,19.00
2018-12-06T21:50:08.858Z,16.90
2018-12-06T21:52:37.647Z,15.63
2018-12-06T21:55:06.555Z,17.15
2018-12-06T21:57:37.334Z,17.17
2018-12-06T22:00:06.483Z,15.45
2018-12-06T22:02:37.318Z,18.07
2018-12-06T22:05:11.134Z,13.95
2018-12-06T22:07:46.570Z,16.17
2018-12-06T22:10:15.422Z,13.85
2018-12-06T22:12:44.403Z,20.62
2018-12-06T22:15:15.562Z,16.65
2018-12-06T22:17:48.755Z,12.60
2018-12-06T22:20:19.458Z,12.63
2018-12-06T22:22:49.307Z,13.38
2018-12-06T22:25:19.106Z,12.80
2018-12-06T22:27:48.959Z,14.03
2018-12-06T22:30:23.699Z,16.02
2018-12-06T22:32:53.587Z,15.48
2018-12-06T22:35:23.355Z,12.65
2018-12-06T22:37:54.199Z,13.45
2018-12-06T22:40:25.048Z,12.18
2018-12-06T22:42:54.857Z,11.57
2018-12-06T22:49:22.355Z,12.13
2018-12-06T22:51:52.087Z,10.75
2018-12-06T22:54:20.935Z,17.05
2018-12-06T22:56:51.687Z,11.08
2018-12-06T22:59:20.555Z,11.15
2018-12-06T23:01:53.046Z,11.22
2018-12-06T23:04:21.911Z,10.15
2018-12-06T23:06:51.710Z,14.53
2018-12-06T23:09:20.543Z,11.18
2018-12-06T23:11:50.302Z,9.18
2018-12-06T23:14:20.106Z,10.28
2018-12-06T23:16:52.010Z,8.33
2018-12-06T23:19:22.734Z,10.45
2018-12-06T23:21:52.531Z,14.05
2018-12-06T23:24:22.381Z,10.38
2018-12-06T23:26:55.868Z,10.20
2018-12-06T23:29:30.490Z,11.30
2018-12-06T23:32:01.294Z,10.18
2018-12-06T23:34:34.094Z,9.65
2018-12-06T23:37:02.899Z,9.83
2018-12-06T23:39:33.702Z,10.90
2018-12-06T23:42:02.490Z,11.25
2018-12-06T23:44:32.310Z,9.80
2018-12-06T23:47:01.110Z,15.57
2018-12-06T23:49:30.939Z,11.50
2018-12-06T23:51:59.791Z,11.08
2018-12-06T23:54:28.638Z,12.73
2018-12-06T23:57:03.486Z,10.50
2018-12-06T23:59:33.238Z,12.00
